ASL90A LYBE-LDDU
Flight info
| Callsign | ASL90A |
|---|---|
| Flight time | 0h 44m |
| Altitude | 36000 |
| Route | VAL N732 KOSIV DCT TORTO DCT MOKUN |
| Aircraft | A319/M-SDE2E3FGHIJ1LORVWY/LB1 |
Departure
| Time | 2026-05-06 08:32 |
|---|---|
| Airport | Belgrade Nikola Tesla Airport (LYBE) |
Arrival
| Time | 2026-05-06 09:16 |
|---|---|
| Airport | Dubrovnik Ruđer Bošković Airport (LDDU) |
| Time | Latitude | Longitude | Altitude | Speed | Heading |
|---|---|---|---|---|---|
| 2026-05-06 08:13 | 44.82167 | 20.29109 | 0 ft | 0 kts | 211° |
| 2026-05-06 08:18 | 44.82168 | 20.29109 | 0 ft | 0 kts | 211° |
| 2026-05-06 08:24 | 44.82171 | 20.29112 | 307 ft | 2 kts | 211° |
| 2026-05-06 08:25 | 44.82186 | 20.29126 | 307 ft | 3 kts | 212° |
| 2026-05-06 08:25 | 44.82203 | 20.29140 | 307 ft | 3 kts | 212° |
| 2026-05-06 08:25 | 44.82216 | 20.29156 | 307 ft | 3 kts | 264° |
| 2026-05-06 08:25 | 44.82213 | 20.29181 | 308 ft | 2 kts | 301° |
| 2026-05-06 08:26 | 44.82207 | 20.29194 | 306 ft | 2 kts | 302° |
| 2026-05-06 08:26 | 44.82202 | 20.29206 | 306 ft | 0 kts | 302° |
| 2026-05-06 08:29 | 44.82208 | 20.29193 | 306 ft | 3 kts | 302° |
| 2026-05-06 08:29 | 44.82223 | 20.29160 | 307 ft | 5 kts | 302° |
| 2026-05-06 08:29 | 44.82245 | 20.29110 | 307 ft | 7 kts | 302° |
| 2026-05-06 08:29 | 44.82274 | 20.29045 | 307 ft | 9 kts | 302° |
| 2026-05-06 08:30 | 44.82309 | 20.28968 | 307 ft | 10 kts | 302° |
| 2026-05-06 08:30 | 44.82349 | 20.28878 | 307 ft | 11 kts | 302° |
| 2026-05-06 08:30 | 44.82388 | 20.28799 | 307 ft | 9 kts | 320° |
| 2026-05-06 08:30 | 44.82450 | 20.28821 | 307 ft | 11 kts | 31° |
| 2026-05-06 08:31 | 44.82524 | 20.28866 | 307 ft | 13 kts | 32° |
| 2026-05-06 08:31 | 44.82583 | 20.28935 | 308 ft | 11 kts | 52° |
| 2026-05-06 08:31 | 44.82617 | 20.29054 | 306 ft | 15 kts | 78° |
| 2026-05-06 08:31 | 44.82596 | 20.29221 | 306 ft | 23 kts | 121° |
| 2026-05-06 08:32 | 44.82417 | 20.29624 | 308 ft | 79 kts | 122° |
| 2026-05-06 08:32 | 44.82021 | 20.30510 | 306 ft | 133 kts | 122° |
| 2026-05-06 08:32 | 44.81461 | 20.31751 | 529 ft | 158 kts | 123° |
| 2026-05-06 08:32 | 44.80884 | 20.33064 | 1227 ft | 158 kts | 122° |
| 2026-05-06 08:33 | 44.80308 | 20.34420 | 1788 ft | 170 kts | 123° |
| 2026-05-06 08:33 | 44.79642 | 20.35948 | 2170 ft | 199 kts | 123° |
| 2026-05-06 08:33 | 44.78795 | 20.37677 | 2578 ft | 229 kts | 135° |
| 2026-05-06 08:33 | 44.77317 | 20.38704 | 3050 ft | 252 kts | 174° |
| 2026-05-06 08:34 | 44.75598 | 20.38158 | 3995 ft | 262 kts | 208° |
| 2026-05-06 08:34 | 44.72471 | 20.35489 | 6256 ft | 267 kts | 212° |
| 2026-05-06 08:34 | 44.70880 | 20.34099 | 7244 ft | 271 kts | 212° |
| 2026-05-06 08:35 | 44.69258 | 20.32687 | 8213 ft | 276 kts | 212° |
| 2026-05-06 08:35 | 44.67614 | 20.31262 | 9211 ft | 279 kts | 212° |
| 2026-05-06 08:35 | 44.65958 | 20.29831 | 10156 ft | 284 kts | 212° |
| 2026-05-06 08:35 | 44.64212 | 20.28323 | 10585 ft | 306 kts | 212° |
| 2026-05-06 08:36 | 44.62331 | 20.26700 | 11006 ft | 324 kts | 212° |
| 2026-05-06 08:36 | 44.60380 | 20.25022 | 11720 ft | 331 kts | 212° |
| 2026-05-06 08:36 | 44.58397 | 20.23323 | 12518 ft | 336 kts | 212° |
| 2026-05-06 08:36 | 44.56409 | 20.21625 | 13296 ft | 340 kts | 212° |
| 2026-05-06 08:37 | 44.54367 | 20.19884 | 14052 ft | 344 kts | 212° |
| 2026-05-06 08:37 | 44.52302 | 20.18123 | 14727 ft | 348 kts | 212° |
| 2026-05-06 08:37 | 44.50222 | 20.16345 | 15409 ft | 352 kts | 212° |
| 2026-05-06 08:37 | 44.48109 | 20.14537 | 16090 ft | 356 kts | 212° |
| 2026-05-06 08:38 | 44.46003 | 20.12736 | 16760 ft | 360 kts | 212° |
| 2026-05-06 08:38 | 44.43850 | 20.10899 | 17434 ft | 364 kts | 212° |
| 2026-05-06 08:38 | 44.41667 | 20.09042 | 18106 ft | 369 kts | 212° |
| 2026-05-06 08:38 | 44.39455 | 20.07165 | 18713 ft | 372 kts | 212° |
| 2026-05-06 08:39 | 44.37226 | 20.05274 | 19315 ft | 376 kts | 212° |
| 2026-05-06 08:39 | 44.35012 | 20.03396 | 19914 ft | 379 kts | 212° |
| 2026-05-06 08:39 | 44.32742 | 20.01471 | 20530 ft | 382 kts | 212° |
| 2026-05-06 08:39 | 44.30451 | 19.99530 | 21134 ft | 385 kts | 212° |
| 2026-05-06 08:40 | 44.28152 | 19.97579 | 21744 ft | 387 kts | 213° |
| 2026-05-06 08:40 | 44.25865 | 19.95639 | 22323 ft | 390 kts | 213° |
| 2026-05-06 08:40 | 44.23525 | 19.93655 | 22911 ft | 393 kts | 213° |
| 2026-05-06 08:40 | 44.21161 | 19.91658 | 23476 ft | 397 kts | 213° |
| 2026-05-06 08:41 | 44.18819 | 19.89681 | 23955 ft | 399 kts | 213° |
| 2026-05-06 08:41 | 44.16426 | 19.87667 | 24430 ft | 402 kts | 213° |
| 2026-05-06 08:41 | 44.14014 | 19.85642 | 24881 ft | 405 kts | 213° |
| 2026-05-06 08:41 | 44.11622 | 19.83633 | 25324 ft | 407 kts | 213° |
| 2026-05-06 08:42 | 44.09183 | 19.81584 | 25772 ft | 410 kts | 213° |
| 2026-05-06 08:42 | 44.06730 | 19.79521 | 26214 ft | 412 kts | 213° |
| 2026-05-06 08:42 | 44.04262 | 19.77451 | 26643 ft | 415 kts | 213° |
| 2026-05-06 08:42 | 44.01774 | 19.75368 | 27086 ft | 418 kts | 213° |
| 2026-05-06 08:43 | 43.99312 | 19.73308 | 27505 ft | 420 kts | 213° |
| 2026-05-06 08:43 | 43.96796 | 19.71201 | 27914 ft | 423 kts | 213° |
| 2026-05-06 08:43 | 43.94267 | 19.69086 | 28022 ft | 418 kts | 213° |
| 2026-05-06 08:43 | 43.91810 | 19.67034 | 28042 ft | 407 kts | 214° |
| 2026-05-06 08:44 | 43.89420 | 19.65041 | 28044 ft | 403 kts | 214° |
| 2026-05-06 08:44 | 43.84614 | 19.61039 | 28046 ft | 402 kts | 214° |
| 2026-05-06 08:45 | 43.79840 | 19.57076 | 28045 ft | 401 kts | 214° |
| 2026-05-06 08:45 | 43.75043 | 19.53093 | 28048 ft | 401 kts | 214° |
| 2026-05-06 08:46 | 43.70278 | 19.49142 | 28045 ft | 401 kts | 214° |
| 2026-05-06 08:46 | 43.65503 | 19.45191 | 28043 ft | 400 kts | 214° |
| 2026-05-06 08:47 | 43.60707 | 19.41241 | 28045 ft | 400 kts | 214° |
| 2026-05-06 08:47 | 43.55923 | 19.37311 | 28037 ft | 400 kts | 214° |
| 2026-05-06 08:48 | 43.51158 | 19.33397 | 28042 ft | 400 kts | 214° |
| 2026-05-06 08:48 | 43.46369 | 19.29468 | 28041 ft | 400 kts | 214° |
| 2026-05-06 08:49 | 43.41611 | 19.25567 | 28046 ft | 399 kts | 214° |
| 2026-05-06 08:49 | 43.36826 | 19.21652 | 28048 ft | 398 kts | 214° |
| 2026-05-06 08:50 | 43.32085 | 19.17786 | 28051 ft | 398 kts | 214° |
| 2026-05-06 08:50 | 43.27311 | 19.13902 | 28055 ft | 398 kts | 214° |
| 2026-05-06 08:51 | 43.22570 | 19.10053 | 28059 ft | 397 kts | 214° |
| 2026-05-06 08:51 | 43.17836 | 19.06208 | 28069 ft | 397 kts | 214° |
| 2026-05-06 08:52 | 43.13078 | 19.02355 | 28070 ft | 396 kts | 214° |
| 2026-05-06 08:52 | 43.08326 | 18.98518 | 28075 ft | 396 kts | 214° |
| 2026-05-06 08:53 | 43.03578 | 18.94680 | 28075 ft | 396 kts | 214° |
| 2026-05-06 08:53 | 42.98845 | 18.90870 | 28077 ft | 396 kts | 214° |
| 2026-05-06 08:54 | 42.94123 | 18.87075 | 28078 ft | 396 kts | 214° |
| 2026-05-06 08:54 | 42.91742 | 18.85165 | 27947 ft | 396 kts | 214° |
| 2026-05-06 08:54 | 42.89368 | 18.83264 | 27526 ft | 393 kts | 214° |
| 2026-05-06 08:54 | 42.87009 | 18.81375 | 27116 ft | 390 kts | 214° |
| 2026-05-06 08:55 | 42.84694 | 18.79522 | 26716 ft | 388 kts | 214° |
| 2026-05-06 08:55 | 42.82367 | 18.77664 | 26314 ft | 386 kts | 214° |
| 2026-05-06 08:55 | 42.80059 | 18.75822 | 25922 ft | 383 kts | 214° |
| 2026-05-06 08:55 | 42.77761 | 18.73985 | 25530 ft | 381 kts | 214° |
| 2026-05-06 08:56 | 42.75480 | 18.72162 | 25148 ft | 379 kts | 214° |
| 2026-05-06 08:56 | 42.73239 | 18.70372 | 24775 ft | 377 kts | 214° |
| 2026-05-06 08:56 | 42.70981 | 18.68571 | 24400 ft | 374 kts | 214° |
| 2026-05-06 08:56 | 42.68742 | 18.66787 | 24035 ft | 372 kts | 214° |
| 2026-05-06 08:57 | 42.66511 | 18.65012 | 23660 ft | 370 kts | 214° |
| 2026-05-06 08:57 | 42.64291 | 18.63247 | 23235 ft | 367 kts | 214° |
| 2026-05-06 08:57 | 42.62114 | 18.61518 | 22809 ft | 365 kts | 214° |
| 2026-05-06 08:57 | 42.59918 | 18.59779 | 22394 ft | 363 kts | 213° |
| 2026-05-06 08:58 | 42.57741 | 18.58057 | 21971 ft | 361 kts | 213° |
| 2026-05-06 08:58 | 42.55575 | 18.56345 | 21554 ft | 359 kts | 213° |
| 2026-05-06 08:58 | 42.53443 | 18.54660 | 21156 ft | 357 kts | 213° |
| 2026-05-06 08:58 | 42.51297 | 18.52966 | 20752 ft | 355 kts | 213° |
| 2026-05-06 08:59 | 42.49296 | 18.51044 | 20347 ft | 350 kts | 226° |
| 2026-05-06 08:59 | 42.47776 | 18.48505 | 19966 ft | 345 kts | 241° |
| 2026-05-06 08:59 | 42.46841 | 18.45544 | 19578 ft | 342 kts | 256° |
| 2026-05-06 08:59 | 42.46527 | 18.42371 | 19203 ft | 340 kts | 270° |
| 2026-05-06 09:00 | 42.46838 | 18.39252 | 18834 ft | 339 kts | 284° |
| 2026-05-06 09:00 | 42.47475 | 18.36178 | 18467 ft | 338 kts | 284° |
| 2026-05-06 09:00 | 42.48108 | 18.33116 | 18052 ft | 337 kts | 284° |
| 2026-05-06 09:00 | 42.48732 | 18.30068 | 17628 ft | 335 kts | 284° |
| 2026-05-06 09:01 | 42.49355 | 18.27027 | 17210 ft | 333 kts | 284° |
| 2026-05-06 09:01 | 42.49973 | 18.24018 | 16797 ft | 331 kts | 284° |
| 2026-05-06 09:01 | 42.50585 | 18.21023 | 16394 ft | 329 kts | 284° |
| 2026-05-06 09:01 | 42.51187 | 18.18077 | 15993 ft | 327 kts | 283° |
| 2026-05-06 09:02 | 42.51792 | 18.15111 | 15596 ft | 325 kts | 283° |
| 2026-05-06 09:02 | 42.52391 | 18.12159 | 15200 ft | 324 kts | 283° |
| 2026-05-06 09:02 | 42.52988 | 18.09221 | 14815 ft | 322 kts | 283° |
| 2026-05-06 09:02 | 42.53382 | 18.07283 | 14559 ft | 321 kts | 283° |
| 2026-05-06 09:03 | 42.54162 | 18.03415 | 14054 ft | 319 kts | 282° |
| 2026-05-06 09:03 | 42.54743 | 18.00521 | 13654 ft | 317 kts | 282° |
| 2026-05-06 09:03 | 42.55138 | 17.98565 | 13359 ft | 317 kts | 282° |
| 2026-05-06 09:03 | 42.55714 | 17.95725 | 12948 ft | 315 kts | 283° |
| 2026-05-06 09:04 | 42.56365 | 17.92883 | 12530 ft | 316 kts | 289° |
| 2026-05-06 09:04 | 42.57354 | 17.90205 | 12122 ft | 317 kts | 295° |
| 2026-05-06 09:04 | 42.58397 | 17.87563 | 11714 ft | 316 kts | 295° |
| 2026-05-06 09:04 | 42.59432 | 17.84928 | 11319 ft | 316 kts | 295° |
| 2026-05-06 09:05 | 42.60449 | 17.82328 | 10923 ft | 315 kts | 295° |
| 2026-05-06 09:05 | 42.61478 | 17.79698 | 10535 ft | 314 kts | 295° |
| 2026-05-06 09:05 | 42.62500 | 17.77075 | 10150 ft | 313 kts | 295° |
| 2026-05-06 09:05 | 42.63516 | 17.74469 | 9748 ft | 311 kts | 295° |
| 2026-05-06 09:06 | 42.64529 | 17.71876 | 9334 ft | 309 kts | 295° |
| 2026-05-06 09:06 | 42.65758 | 17.69497 | 8901 ft | 308 kts | 314° |
| 2026-05-06 09:06 | 42.67513 | 17.67980 | 8507 ft | 302 kts | 338° |
| 2026-05-06 09:06 | 42.69571 | 17.67525 | 8126 ft | 301 kts | 3° |
| 2026-05-06 09:07 | 42.71594 | 17.68206 | 7849 ft | 298 kts | 26° |
| 2026-05-06 09:07 | 42.73430 | 17.69512 | 7579 ft | 297 kts | 32° |
| 2026-05-06 09:07 | 42.74942 | 17.71321 | 7303 ft | 292 kts | 58° |
| 2026-05-06 09:07 | 42.75754 | 17.73797 | 7036 ft | 283 kts | 83° |
| 2026-05-06 09:08 | 42.75754 | 17.76410 | 6772 ft | 273 kts | 107° |
| 2026-05-06 09:08 | 42.75051 | 17.78768 | 6512 ft | 267 kts | 122° |
| 2026-05-06 09:08 | 42.74185 | 17.80971 | 6236 ft | 266 kts | 122° |
| 2026-05-06 09:08 | 42.73313 | 17.83190 | 5953 ft | 264 kts | 122° |
| 2026-05-06 09:09 | 42.72454 | 17.85379 | 5676 ft | 261 kts | 122° |
| 2026-05-06 09:09 | 42.71611 | 17.87531 | 5466 ft | 255 kts | 122° |
| 2026-05-06 09:09 | 42.70781 | 17.89638 | 5264 ft | 249 kts | 122° |
| 2026-05-06 09:09 | 42.69978 | 17.91686 | 5068 ft | 241 kts | 122° |
| 2026-05-06 09:10 | 42.69210 | 17.93647 | 4879 ft | 235 kts | 122° |
| 2026-05-06 09:10 | 42.68447 | 17.95594 | 4667 ft | 231 kts | 121° |
| 2026-05-06 09:10 | 42.67696 | 17.97508 | 4470 ft | 228 kts | 122° |
| 2026-05-06 09:10 | 42.66955 | 17.99395 | 4266 ft | 223 kts | 122° |
| 2026-05-06 09:11 | 42.66235 | 18.01230 | 4060 ft | 217 kts | 121° |
| 2026-05-06 09:11 | 42.65544 | 18.02990 | 3856 ft | 207 kts | 121° |
| 2026-05-06 09:11 | 42.64896 | 18.04640 | 3747 ft | 188 kts | 121° |
| 2026-05-06 09:11 | 42.64297 | 18.06162 | 3605 ft | 178 kts | 122° |
| 2026-05-06 09:12 | 42.63722 | 18.07620 | 3366 ft | 171 kts | 121° |
| 2026-05-06 09:12 | 42.63171 | 18.09019 | 3142 ft | 165 kts | 121° |
| 2026-05-06 09:12 | 42.62642 | 18.10361 | 2929 ft | 155 kts | 122° |
| 2026-05-06 09:12 | 42.62165 | 18.11576 | 2738 ft | 135 kts | 122° |
| 2026-05-06 09:13 | 42.61743 | 18.12644 | 2558 ft | 126 kts | 123° |
| 2026-05-06 09:13 | 42.61336 | 18.13674 | 2400 ft | 122 kts | 123° |
| 2026-05-06 09:13 | 42.60938 | 18.14683 | 2239 ft | 120 kts | 124° |
| 2026-05-06 09:13 | 42.60542 | 18.15683 | 2084 ft | 120 kts | 123° |
| 2026-05-06 09:14 | 42.60147 | 18.16682 | 1914 ft | 120 kts | 122° |
| 2026-05-06 09:14 | 42.59763 | 18.17677 | 1765 ft | 119 kts | 122° |
| 2026-05-06 09:14 | 42.59386 | 18.18661 | 1601 ft | 119 kts | 123° |
| 2026-05-06 09:14 | 42.58988 | 18.19642 | 1443 ft | 119 kts | 122° |
| 2026-05-06 09:15 | 42.58598 | 18.20629 | 1289 ft | 118 kts | 123° |
| 2026-05-06 09:15 | 42.58207 | 18.21612 | 1092 ft | 118 kts | 123° |
| 2026-05-06 09:15 | 42.57828 | 18.22585 | 947 ft | 119 kts | 121° |
| 2026-05-06 09:15 | 42.57436 | 18.23575 | 766 ft | 118 kts | 123° |
| 2026-05-06 09:16 | 42.57048 | 18.24551 | 615 ft | 119 kts | 123° |
| 2026-05-06 09:16 | 42.56663 | 18.25514 | 530 ft | 107 kts | 123° |
| 2026-05-06 09:16 | 42.56370 | 18.26232 | 527 ft | 63 kts | 118° |
| 2026-05-06 09:16 | 42.56228 | 18.26597 | 527 ft | 29 kts | 118° |
| 2026-05-06 09:17 | 42.56165 | 18.26644 | 527 ft | 12 kts | 235° |
| 2026-05-06 09:17 | 42.56121 | 18.26532 | 526 ft | 11 kts | 241° |
| 2026-05-06 09:17 | 42.56103 | 18.26465 | 524 ft | 10 kts | 267° |
| 2026-05-06 09:17 | 42.56073 | 18.26413 | 522 ft | 9 kts | 207° |
| 2026-05-06 09:18 | 42.56053 | 18.26399 | 521 ft | 0 kts | 208° |
| 2026-05-06 09:18 | 42.56047 | 18.26394 | 521 ft | 0 kts | 208° |